KYKM

Yakima Air Terminal

Airport
ICAO code
KYKM
Summary
ICAO Region
NAM
ICAO Territory
Location

Yakima, Washington,

Coordinates
46° 34' 11" N , 120° 32' 23" W
KCC
Airport CFIT
Altimeter Temperature Error Correction
Airport WX
Mountain Waves
Metar
KYKM 230453Z 34013G20KT 10SM CLR 26/07 A2978 RMK AO2 SLP074 T02610067

Description

Yakima Air Terminal, also known as McAllister Field, is a public use airport located 6 km south of the central business district of Yakima, a city in Yakima County, Washington.

Climatology

Semi-arid climate (Köppen climate classification BSk) - Little precipitation, hot summers and cold winters, sometimes with large changes in temperature in a 24 hour period.

Runways

Designator Length Width Surface Rops
4/22 1169 46 ASP Yes/Yes
9/27 2317 46 ASP Yes/Yes

Airport map

Aerial View

SKYbrary Partners:

Safety knowledge contributed by: